| Date | Time | Temp. (oF) | Dew Point (oF) | Rel. Hum. (%) | Press. (in.) | Wind Dir. | Wind Speed (mph) | Hourly Rainfall (in.) |
|
|---|---|---|---|---|---|---|---|---|---|
| 1 | 10/23 | 00:00 | 46 | 38 | 74 | 29.75 | N | 12 | 0.00 |
| 2 | 10/22 | 23:00 | 47 | 37 | 69 | 29.73 | N | 6 | 0.00 |
| 3 | 10/22 | 22:00 | 47 | 35 | 64 | 29.73 | SE | 10 | 0.00 |
| 4 | 10/22 | 21:00 | 47 | 34 | 62 | 29.71 | SE | 4 | 0.00 |
| 5 | 10/22 | 20:00 | 49 | 34 | 58 | 29.69 | ESE | 17 | 0.00 |
| 6 | 10/22 | 19:00 | 48 | 30 | 50 | 29.66 | SE | 8 | 0.00 |
| 7 | 10/22 | 18:00 | 51 | 29 | 44 | 29.64 | SE | 20 | 0.00 |
| 8 | 10/22 | 17:00 | 52 | 30 | 43 | 29.60 | SE | 5 | 0.00 |
| 9 | 10/22 | 16:00 | 54 | 31 | 43 | 29.58 | ESE | 5 | 0.00 |
| 10 | 10/22 | 15:00 | 54 | 33 | 45 | 29.58 | W | 21 | 0.00 |
| 11 | 10/22 | 14:00 | 52 | 32 | 48 | 29.58 | SSE | 17 | 0.00 |
| 12 | 10/22 | 13:00 | 50 | 34 | 56 | 29.59 | N | 19 | 0.00 |
| 13 | 10/22 | 12:00 | 50 | 35 | 57 | 29.58 | N | 7 | 0.00 |
| 14 | 10/22 | 11:00 | 49 | 36 | 62 | 29.56 | SSE | 24 | 0.00 |
| 15 | 10/22 | 10:00 | 50 | 40 | 70 | 29.55 | SE | 5 | 0.00 |
| 16 | 10/22 | 09:00 | 50 | 39 | 67 | 29.53 | SE | 12 | 0.00 |
| 17 | 10/22 | 08:00 | 49 | 40 | 72 | 29.51 | SSE | 6 | 0.00 |
| 18 | 10/22 | 07:00 | 50 | 40 | 69 | 29.50 | N | 7 | 0.00 |
| 19 | 10/22 | 06:00 | 50 | 40 | 70 | 29.50 | N | 11 | 0.00 |
| 20 | 10/22 | 05:00 | 51 | 42 | 72 | 29.49 | SSE | 7 | 0.00 |
| 21 | 10/22 | 04:00 | 51 | 42 | 73 | 29.48 | SE | 11 | 0.00 |
| 22 | 10/22 | 03:00 | 52 | 43 | 73 | 29.49 | N | 9 | 0.00 |
| 23 | 10/22 | 02:00 | 52 | 44 | 76 | 29.46 | N | 13 | 0.00 |
| 24 | 10/22 | 01:00 | 53 | 46 | 78 | 29.51 | SE | 5 | 0.00 |